KEAN/EAN METAR and TAF weather

Enter ICAO airport designator
Station Type Date Time Source
KEAN METAR 2022/10/01 08:10 UTC NOAA

KEAN 010810Z AUTO 26005KT 10SM CLR 12/07 A3005 RMK AO2 T01180072


Station Type Date Time Source
KEAN Decoded METAR 2022/10/01 08:10 UTC NOAA

Station name not available
Oct 01, 2022 - 04:10 AM EDT / 2022.10.01 0810 UTC
Wind: from the W (260 degrees) at 6 MPH (5 KT):0
Visibility: 10 mile(s):0
Sky conditions: clear
Temperature: 53.2 F (11.8 C)
Dew Point: 45.0 F (7.2 C)
Relative Humidity: 73%
Pressure (altimeter): 30.05 in. Hg (1017 hPa)
ob: KEAN 010810Z AUTO 26005KT 10SM CLR 12/07 A3005 RMK AO2 T01180072
cycle: 8

Station Type Date Time Source
KEAN TAF UTC NOAA

Error!

Example: see airport list